UNI weather

La Unión Airstrip
Paraíso, Tabasco, Mexico

Public forecast

Using degrees Celsius for public forecast. Weather courtesy of forecast.io.

METAR (pilot weather report)

Report is more than 2 hours old.

Closest report is Carlos Rovirosa Pérez International Airport, 39.6 nm (73.2 km) SE. Retrieved 2019/06/17 02:44 UTC (5 hours ago):

MMVA 170244Z 00000KT 5SM SCT015CB BKN070 29/22 A2984 RMK SLP099 52017 970 8/360 CBS MOV NE W HZY

TAF (pilot weather forecast)

Closest forecast is Carlos Rovirosa Pérez International Airport, 39.6 nm (73.2 km) SE. Retrieved 2019/06/17 06:16 UTC (2 hours ago):

TAF MMVA 170510Z 1706/1806 00000KT 5SM HZ SCT015 SCT080 TEMPO 1711/1715 4SM HZ BKN012 FM171800 12012KT P6SM SCT015CB BKN080 BKN250 FM180500 04005KT 5SM HZ SCT015 SCT250